»·PEaware :: N225XT KSAN-KPSP

N225XT :: KSAN-KPSP

FLIGHT INFORMATION

Flight Status: Arrived
Operator: Privately registered:
United States
More flights under this callsign
Pilot: Sanjiv S. (4490)
Aircraft: EMBRAER BANDEIRANTE
(E110)
More flights by this aircraft type
Origin: KSAN San Diego Intl-Lindbergh
United States
Destination: KPSP Palm Springs Intl
United States
More flights between these airports :: More routes between these airports
Route: + PGY BROWS JLI V208 TRM
File this flight plan on PilotEdge
Remarks:
Altitude:
(Current/Filed)
11,000ft
Speed:
(Current/Filed)
200kts
Departed: 04-Aug-18 10:45 AM
Arrived: 04-Aug-18 11:47 AM
Distance/Time
Traveled:
74nm/1:02
Distance/Time
To Go:
Arrived

Flight Plot

Page will automatically refresh every two minutes.

Flight plan parsing failed; only flown route is shown


Map Options




Map Legend


Flown Route
Filed Route
Departure Airport
Arrival Airport
Navaid (VOR, NDB)
Fix

Horizontal Profiles

Position Reports

Time Latitude Longitude Heading Altitude Ground
Speed
04-Aug-18 10:15 32.732334 -117.177539 194 21ft 0kts
04-Aug-18 10:16 32.732334 -117.177539 194 21ft 0kts
04-Aug-18 10:17 32.732334 -117.177539 194 21ft 0kts
04-Aug-18 10:18 32.732334 -117.177539 194 21ft 0kts
04-Aug-18 10:19 32.732334 -117.177539 194 21ft 0kts
04-Aug-18 10:20 32.732334 -117.177539 194 21ft 0kts
04-Aug-18 10:21 32.732334 -117.177539 194 21ft 0kts
04-Aug-18 10:22 32.732334 -117.177539 194 21ft 0kts
04-Aug-18 10:23 32.732334 -117.177539 194 21ft 0kts
04-Aug-18 10:24 32.732334 -117.177539 194 21ft 0kts
04-Aug-18 10:25 32.732334 -117.177539 194 21ft 0kts
04-Aug-18 10:26 32.732334 -117.177539 194 21ft 0kts
04-Aug-18 10:27 32.732334 -117.177539 194 21ft 0kts
04-Aug-18 10:28 32.732334 -117.177539 194 21ft 0kts
04-Aug-18 10:29 32.732334 -117.177539 194 21ft 0kts
04-Aug-18 10:30 32.732334 -117.177539 194 21ft 0kts
04-Aug-18 10:31 32.732334 -117.177539 194 21ft 0kts
04-Aug-18 10:32 32.732334 -117.177539 194 21ft 0kts
04-Aug-18 10:33 32.732334 -117.177539 194 21ft 0kts
04-Aug-18 10:34 32.732334 -117.177539 194 21ft 0kts
04-Aug-18 10:35 32.732334 -117.177539 194 21ft 0kts
04-Aug-18 10:36 32.732334 -117.177539 193 21ft 0kts
04-Aug-18 10:37 32.732334 -117.177539 193 21ft 0kts
04-Aug-18 10:38 32.732334 -117.177539 193 21ft 0kts
04-Aug-18 10:39 32.732334 -117.177539 193 21ft 0kts
04-Aug-18 10:40 32.732334 -117.177539 193 21ft 0kts
04-Aug-18 10:41 32.731948 -117.177637 178 21ft 6kts
04-Aug-18 10:42 32.730917 -117.175489 135 22ft 0kts
04-Aug-18 10:43 32.730917 -117.175489 135 22ft 0kts
04-Aug-18 10:44 32.730917 -117.175489 135 22ft 0kts
04-Aug-18 10:45 32.730128 -117.175541 284 21ft 0kts
04-Aug-18 10:46 32.731194 -117.180021 287 17ft 63kts
04-Aug-18 10:47 32.739415 -117.214185 285 216ft 130kts
04-Aug-18 10:48 32.751834 -117.258497 291 772ft 131kts
04-Aug-18 10:49 32.762460 -117.291161 294 1552ft 114kts
04-Aug-18 10:50 32.757715 -117.323627 196 2158ft 115kts
04-Aug-18 10:51 32.730753 -117.306068 142 2763ft 115kts
04-Aug-18 10:52 32.704986 -117.281943 142 3494ft 120kts
04-Aug-18 10:53 32.678739 -117.257361 142 4263ft 120kts
04-Aug-18 10:54 32.652479 -117.232739 142 4973ft 119kts
04-Aug-18 10:55 32.626105 -117.209031 128 5582ft 120kts
04-Aug-18 10:56 32.621372 -117.170313 95 6163ft 120kts
04-Aug-18 10:57 32.619105 -117.131063 94 6718ft 120kts
04-Aug-18 10:58 32.616751 -117.091700 94 7242ft 120kts
04-Aug-18 10:59 32.614143 -117.051006 94 7663ft 129kts
04-Aug-18 11:00 32.611397 -117.006647 94 8049ft 137kts
04-Aug-18 11:01 32.609246 -116.968998 94 8423ft 137kts
04-Aug-18 11:02 32.614785 -116.916861 79 8923ft 138kts
04-Aug-18 11:03 32.621596 -116.871997 79 9335ft 138kts
04-Aug-18 11:04 32.627215 -116.835016 79 9631ft 136kts
04-Aug-18 11:05 32.633935 -116.790807 79 9923ft 136kts
04-Aug-18 11:06 32.662104 -116.757743 17 10260ft 138kts
04-Aug-18 11:07 32.692644 -116.746276 17 10545ft 139kts
04-Aug-18 11:08 32.729452 -116.732823 16 10881ft 139kts
04-Aug-18 11:09 32.774534 -116.716625 16 11004ft 155kts
04-Aug-18 11:10 32.809950 -116.704006 16 10999ft 161kts
04-Aug-18 11:11 32.852455 -116.688870 16 10997ft 159kts
04-Aug-18 11:12 32.895163 -116.673619 16 11008ft 164kts
04-Aug-18 11:13 32.939702 -116.657742 16 11003ft 170kts
04-Aug-18 11:14 32.985528 -116.641391 16 11002ft 173kts
04-Aug-18 11:15 33.031460 -116.624992 16 11002ft 174kts
04-Aug-18 11:16 33.077777 -116.608437 16 11001ft 175kts
04-Aug-18 11:17 33.116760 -116.594524 16 11001ft 175kts
04-Aug-18 11:18 33.159612 -116.573318 34 11005ft 175kts
04-Aug-18 11:19 33.198540 -116.539332 38 11002ft 175kts
04-Aug-18 11:20 33.236039 -116.502219 39 11001ft 175kts
04-Aug-18 11:21 33.273870 -116.465645 38 11001ft 176kts
04-Aug-18 11:22 33.303069 -116.438229 37 10868ft 182kts
04-Aug-18 11:23 33.342217 -116.401915 37 10881ft 178kts
04-Aug-18 11:24 33.381286 -116.365866 37 10882ft 177kts
04-Aug-18 11:25 33.418873 -116.330654 38 10882ft 176kts
04-Aug-18 11:26 33.457267 -116.296312 34 11005ft 171kts
04-Aug-18 11:27 33.497024 -116.264190 34 11002ft 174kts
04-Aug-18 11:28 33.537171 -116.232054 33 11001ft 175kts
04-Aug-18 11:29 33.577806 -116.199640 33 10823ft 185kts
04-Aug-18 11:30 33.623682 -116.163931 35 9907ft 206kts
04-Aug-18 11:31 33.672437 -116.157146 304 9035ft 211kts
04-Aug-18 11:32 33.702281 -116.214727 301 8327ft 210kts
04-Aug-18 11:33 33.732338 -116.273070 301 7624ft 209kts
04-Aug-18 11:34 33.762356 -116.331318 301 6937ft 208kts
04-Aug-18 11:35 33.791973 -116.388765 302 6275ft 207kts
04-Aug-18 11:36 33.821136 -116.445129 302 5604ft 199kts
04-Aug-18 11:37 33.853386 -116.496358 320 4914ft 203kts
04-Aug-18 11:38 33.896459 -116.538869 320 4288ft 201kts
04-Aug-18 11:39 33.930203 -116.534110 133 3626ft 184kts
04-Aug-18 11:40 33.897497 -116.494046 135 3677ft 146kts
04-Aug-18 11:41 33.871600 -116.459572 125 3799ft 134kts
04-Aug-18 11:42 33.843167 -116.427458 152 3456ft 148kts
04-Aug-18 11:43 33.809416 -116.400859 152 2883ft 158kts
04-Aug-18 11:44 33.771455 -116.399208 231 1548ft 157kts
04-Aug-18 11:45 33.774388 -116.438625 289 1080ft 109kts
04-Aug-18 11:46 33.786780 -116.468107 315 914ft 98kts
04-Aug-18 11:47 33.809922 -116.488268 321 777ft 105kts
04-Aug-18 11:48 33.828102 -116.506596 298 478ft 0kts
04-Aug-18 11:49 33.828281 -116.506991 298 478ft 1kts
04-Aug-18 11:50 33.828497 -116.507474 298 478ft 1kts
04-Aug-18 11:51 33.828724 -116.507969 299 478ft 1kts
04-Aug-18 11:52 33.828773 -116.508074 299 478ft 1kts

Navigation Log

Ident Type
Flight plan parsing failed, navigation log unavailable